createdAt,value
2018-08-28T00:02:22.619Z,19.80
2018-08-28T00:04:52.021Z,19.73
2018-08-28T00:07:21.253Z,19.98
2018-08-28T00:09:50.606Z,19.77
2018-08-28T00:12:20.534Z,19.86
2018-08-28T00:14:49.934Z,19.53
2018-08-28T00:17:19.439Z,19.77
2018-08-28T00:19:48.689Z,19.76
2018-08-28T00:22:18.163Z,19.63
2018-08-28T00:24:47.731Z,19.65
2018-08-28T00:27:17.366Z,19.79
2018-08-28T00:29:46.694Z,19.50
2018-08-28T00:32:16.524Z,19.61
2018-08-28T00:34:46.300Z,19.57
2018-08-28T00:37:15.680Z,19.65
2018-08-28T00:39:45.184Z,19.62
2018-08-28T00:42:14.690Z,19.49
2018-08-28T00:44:44.194Z,19.44
2018-08-28T00:47:13.595Z,19.37
2018-08-28T00:49:42.996Z,19.24
2018-08-28T00:52:12.407Z,19.48
2018-08-28T00:54:41.903Z,19.50
2018-08-28T00:57:11.307Z,19.60
2018-08-28T00:59:40.629Z,19.62
2018-08-28T01:02:10.009Z,19.64
2018-08-28T01:04:39.510Z,19.59
2018-08-28T01:07:09.039Z,19.59
2018-08-28T01:09:38.520Z,19.37
2018-08-28T01:12:07.847Z,19.43
2018-08-28T01:14:37.359Z,19.27
2018-08-28T01:17:06.830Z,19.49
2018-08-28T01:19:36.355Z,19.37
2018-08-28T01:22:06.144Z,19.53
2018-08-28T01:24:35.668Z,19.64
2018-08-28T01:27:05.152Z,19.53
2018-08-28T01:29:34.556Z,19.40
2018-08-28T01:32:04.163Z,19.53
2018-08-28T01:34:33.636Z,19.28
2018-08-28T01:37:03.088Z,19.30
2018-08-28T01:39:32.474Z,19.10
2018-08-28T01:42:01.973Z,19.27
2018-08-28T01:44:31.477Z,19.32
2018-08-28T01:47:01.141Z,19.32
2018-08-28T01:49:30.408Z,19.37
2018-08-28T01:51:59.689Z,19.38
2018-08-28T01:54:29.088Z,19.47
2018-08-28T01:56:58.557Z,19.54
2018-08-28T01:59:27.993Z,19.53
2018-08-28T02:01:57.496Z,19.61
2018-08-28T02:04:26.751Z,19.43
2018-08-28T02:06:56.097Z,19.48
2018-08-28T02:09:25.503Z,19.44
2018-08-28T02:11:54.763Z,19.50
2018-08-28T02:14:24.199Z,19.40
2018-08-28T02:16:53.601Z,19.35
2018-08-28T02:19:22.871Z,19.30
2018-08-28T02:21:52.102Z,19.34
2018-08-28T02:24:21.498Z,19.21
2018-08-28T02:26:51.079Z,19.28
2018-08-28T02:29:20.508Z,19.25
2018-08-28T02:31:49.910Z,19.02
2018-08-28T02:34:19.312Z,19.11
2018-08-28T02:36:48.919Z,19.04
2018-08-28T02:39:18.223Z,19.01
2018-08-28T02:41:47.462Z,18.96
2018-08-28T02:44:17.022Z,18.96
2018-08-28T02:46:46.224Z,18.98
2018-08-28T02:49:15.518Z,18.87
2018-08-28T02:51:44.817Z,18.74
2018-08-28T02:54:14.426Z,18.93
2018-08-28T02:56:43.728Z,18.85
2018-08-28T02:59:13.231Z,18.78
2018-08-28T03:01:42.411Z,18.83
2018-08-28T03:04:11.828Z,18.83
2018-08-28T03:06:41.290Z,18.76
2018-08-28T03:09:10.511Z,18.84
2018-08-28T03:11:39.967Z,18.70
2018-08-28T03:14:09.512Z,18.64
2018-08-28T03:16:39.247Z,18.67
2018-08-28T03:19:08.982Z,18.39
2018-08-28T03:21:38.471Z,18.51
2018-08-28T03:24:07.851Z,18.41
2018-08-28T03:26:37.367Z,18.48
2018-08-28T03:29:06.800Z,18.44
2018-08-28T03:31:36.274Z,18.48
2018-08-28T03:34:05.886Z,18.43
2018-08-28T03:36:35.486Z,18.46
2018-08-28T03:39:05.525Z,18.47
2018-08-28T03:41:35.212Z,18.28
2018-08-28T03:44:04.716Z,18.33
2018-08-28T03:46:34.323Z,18.38
2018-08-28T03:49:04.040Z,18.38
2018-08-28T03:51:33.644Z,18.48
2018-08-28T03:54:04.160Z,18.52
2018-08-28T03:56:35.615Z,18.59
2018-08-28T03:59:05.018Z,18.53
2018-08-28T04:01:34.421Z,18.47
2018-08-28T04:04:03.760Z,18.44
2018-08-28T04:06:33.327Z,18.48
2018-08-28T04:09:03.140Z,18.52
2018-08-28T04:11:32.643Z,18.46
2018-08-28T04:14:02.008Z,18.39
2018-08-28T04:16:31.516Z,18.43
2018-08-28T04:19:00.854Z,18.39
2018-08-28T04:21:33.324Z,18.43
2018-08-28T04:24:02.624Z,18.38
2018-08-28T04:26:32.027Z,18.38
2018-08-28T04:29:01.431Z,18.34
2018-08-28T04:31:30.933Z,18.28
2018-08-28T04:34:00.340Z,18.29
2018-08-28T04:36:29.551Z,18.28
2018-08-28T04:38:58.887Z,18.28
2018-08-28T04:41:28.339Z,18.31
2018-08-28T04:43:57.896Z,18.30
2018-08-28T04:46:27.348Z,18.31
2018-08-28T04:48:56.606Z,18.29
2018-08-28T04:51:25.945Z,18.30
2018-08-28T04:53:55.349Z,18.30
2018-08-28T04:56:24.679Z,18.37
2018-08-28T04:58:54.055Z,18.30
2018-08-28T05:01:23.654Z,18.30
2018-08-28T05:03:53.054Z,18.27
2018-08-28T05:06:23.586Z,18.26
2018-08-28T05:08:53.024Z,18.23
2018-08-28T05:11:22.392Z,18.20
2018-08-28T05:13:53.891Z,18.23
2018-08-28T05:16:23.343Z,18.26
2018-08-28T05:18:52.747Z,18.30
2018-08-28T05:21:22.148Z,18.31
2018-08-28T05:23:52.630Z,18.21
2018-08-28T05:26:21.897Z,18.22
2018-08-28T05:28:51.371Z,18.23
2018-08-28T05:31:20.982Z,18.24
2018-08-28T05:33:50.397Z,18.40
2018-08-28T05:36:20.706Z,18.35
2018-08-28T05:38:50.114Z,18.36
2018-08-28T05:41:19.718Z,18.30
2018-08-28T05:43:49.119Z,18.33
2018-08-28T05:46:18.876Z,18.34
2018-08-28T05:48:48.230Z,18.34
2018-08-28T05:51:17.631Z,18.34
2018-08-28T05:53:47.033Z,18.48
2018-08-28T05:56:16.590Z,18.47
2018-08-28T05:58:46.006Z,18.51
2018-08-28T06:01:15.447Z,18.65
2018-08-28T06:03:44.845Z,18.67
2018-08-28T06:06:14.145Z,18.67
2018-08-28T06:08:43.551Z,18.83
2018-08-28T06:11:13.371Z,18.94
2018-08-28T06:13:42.610Z,18.93
2018-08-28T06:16:11.833Z,18.99
2018-08-28T06:18:41.075Z,18.77
2018-08-28T06:21:10.366Z,18.89
2018-08-28T06:23:39.650Z,19.14
2018-08-28T06:26:08.881Z,19.06
2018-08-28T06:28:38.352Z,19.23
2018-08-28T06:31:07.755Z,19.24
2018-08-28T06:33:43.608Z,19.47
2018-08-28T06:36:13.116Z,19.49
2018-08-28T06:38:42.515Z,19.42
2018-08-28T06:41:11.858Z,19.50
2018-08-28T06:43:47.682Z,19.40
2018-08-28T06:46:17.172Z,19.18
2018-08-28T06:48:46.573Z,19.57
2018-08-28T06:51:15.975Z,19.91
2018-08-28T06:53:45.377Z,19.88
2018-08-28T06:56:14.669Z,19.67
2018-08-28T06:58:44.179Z,19.84
2018-08-28T07:01:13.583Z,19.23
2018-08-28T07:03:43.013Z,19.37
2018-08-28T07:06:12.445Z,19.60
2018-08-28T07:08:41.789Z,19.66
2018-08-28T07:11:11.299Z,19.73
2018-08-28T07:13:40.744Z,19.74
2018-08-28T07:16:10.098Z,19.89
2018-08-28T07:18:39.329Z,20.02
2018-08-28T07:21:08.593Z,20.27
2018-08-28T07:23:37.997Z,20.32
2018-08-28T07:26:07.445Z,20.20
2018-08-28T07:28:36.901Z,19.84
2018-08-28T07:31:06.406Z,19.86
2018-08-28T07:33:35.639Z,20.05
2018-08-28T07:36:04.827Z,20.11
2018-08-28T07:38:34.048Z,20.27
2018-08-28T07:41:03.399Z,19.93
2018-08-28T07:43:32.703Z,20.21
2018-08-28T07:46:02.007Z,20.51
2018-08-28T07:48:31.485Z,20.55
2018-08-28T07:51:00.904Z,20.61
2018-08-28T07:53:30.307Z,20.31
2018-08-28T07:55:59.492Z,20.64
2018-08-28T07:58:28.803Z,20.87
2018-08-28T08:00:58.204Z,20.99
2018-08-28T08:03:27.607Z,20.48
2018-08-28T08:05:57.114Z,20.63
2018-08-28T08:08:26.514Z,20.75
2018-08-28T08:10:56.018Z,20.82
2018-08-28T08:13:25.518Z,20.89
2018-08-28T08:15:54.978Z,20.81
2018-08-28T08:18:24.428Z,21.30
2018-08-28T08:20:53.838Z,21.50
2018-08-28T08:23:23.176Z,21.58
2018-08-28T08:25:52.471Z,21.82
2018-08-28T08:28:21.966Z,21.65
2018-08-28T08:30:51.542Z,21.75
2018-08-28T08:33:20.941Z,21.72
2018-08-28T08:35:50.347Z,21.58
2018-08-28T08:38:19.825Z,21.81
2018-08-28T08:40:49.454Z,21.46
2018-08-28T08:43:18.856Z,21.53
2018-08-28T08:45:48.426Z,22.20
2018-08-28T08:48:17.866Z,22.62
2018-08-28T08:50:47.457Z,22.72
2018-08-28T08:53:16.637Z,22.39
2018-08-28T08:55:46.070Z,22.47
2018-08-28T08:58:15.474Z,22.58
2018-08-28T09:00:44.671Z,22.33
2018-08-28T09:03:13.941Z,22.74
2018-08-28T09:05:43.460Z,23.04
2018-08-28T09:08:12.877Z,23.15
2018-08-28T09:10:42.380Z,23.08
2018-08-28T09:13:12.459Z,23.23
2018-08-28T09:15:41.654Z,23.49
2018-08-28T09:18:10.904Z,23.78
2018-08-28T09:20:40.294Z,24.15
2018-08-28T09:23:09.800Z,24.58
2018-08-28T09:25:39.201Z,25.34
2018-08-28T09:28:08.656Z,25.45
2018-08-28T09:30:38.112Z,25.50
2018-08-28T09:33:07.509Z,26.03
2018-08-28T09:35:36.913Z,26.12
2018-08-28T09:38:06.170Z,25.96
2018-08-28T09:40:35.410Z,25.42
2018-08-28T09:43:04.815Z,24.94
2018-08-28T09:45:34.220Z,24.14
2018-08-28T09:48:03.787Z,23.79
2018-08-28T09:50:33.064Z,23.72
2018-08-28T09:53:02.422Z,23.44
2018-08-28T09:55:31.923Z,22.94
2018-08-28T09:58:01.148Z,23.03
2018-08-28T10:00:30.511Z,23.31
2018-08-28T10:02:59.924Z,23.40
2018-08-28T10:05:29.223Z,23.82
2018-08-28T10:07:58.619Z,24.27
2018-08-28T10:10:27.927Z,24.64
2018-08-28T10:12:57.140Z,25.14
2018-08-28T10:15:26.368Z,24.98
2018-08-28T10:17:55.720Z,24.96
2018-08-28T10:20:24.954Z,25.08
2018-08-28T10:22:54.393Z,25.09
2018-08-28T10:25:23.915Z,24.90
2018-08-28T10:27:53.227Z,25.12
2018-08-28T10:30:22.740Z,25.17
2018-08-28T10:32:51.937Z,24.99
2018-08-28T10:35:21.433Z,25.34
2018-08-28T10:37:50.851Z,25.97
2018-08-28T10:40:20.678Z,25.70
2018-08-28T10:42:50.155Z,25.40
2018-08-28T10:45:19.655Z,24.92
2018-08-28T10:47:48.851Z,25.22
2018-08-28T10:50:18.254Z,25.31
2018-08-28T10:52:47.527Z,25.47
2018-08-28T10:55:16.786Z,25.54
2018-08-28T10:57:46.256Z,26.00
2018-08-28T11:00:15.494Z,26.52
2018-08-28T11:02:45.039Z,26.93
2018-08-28T11:05:14.463Z,26.97
2018-08-28T11:07:43.866Z,26.97
2018-08-28T11:10:13.167Z,27.01
2018-08-28T11:12:42.563Z,27.13
2018-08-28T11:15:11.930Z,27.45
2018-08-28T11:17:41.367Z,27.57
2018-08-28T11:20:10.874Z,27.92
2018-08-28T11:22:40.175Z,28.38
2018-08-28T11:25:10.064Z,28.10
2018-08-28T11:27:39.698Z,27.90
2018-08-28T11:30:09.203Z,27.73
2018-08-28T11:32:38.841Z,27.55
2018-08-28T11:35:08.310Z,27.53
2018-08-28T11:37:37.813Z,27.28
2018-08-28T11:40:07.420Z,26.55
2018-08-28T11:42:36.824Z,26.02
2018-08-28T11:45:06.537Z,26.61
2018-08-28T11:47:36.016Z,26.57
2018-08-28T11:50:05.540Z,26.58
2018-08-28T11:52:34.848Z,26.98
2018-08-28T11:55:04.138Z,27.11
2018-08-28T11:57:33.360Z,27.88
2018-08-28T12:00:02.841Z,28.32
2018-08-28T12:02:32.145Z,28.61
2018-08-28T12:05:01.456Z,28.53
2018-08-28T12:07:30.670Z,28.62
2018-08-28T12:10:00.143Z,28.58
2018-08-28T12:12:29.748Z,28.95
2018-08-28T12:14:59.024Z,28.55
2018-08-28T12:17:28.283Z,28.31
2018-08-28T12:19:57.751Z,28.08
2018-08-28T12:22:27.048Z,28.63
2018-08-28T12:24:56.450Z,28.50
2018-08-28T12:27:25.679Z,28.32
2018-08-28T12:29:55.358Z,28.83
2018-08-28T12:32:24.890Z,29.29
2018-08-28T12:34:54.120Z,29.46
2018-08-28T12:37:23.406Z,29.65
2018-08-28T12:39:52.763Z,29.31
2018-08-28T12:42:22.367Z,29.00
2018-08-28T12:44:51.795Z,29.33
2018-08-28T12:47:21.006Z,29.07
2018-08-28T12:49:50.231Z,29.16
2018-08-28T12:52:19.564Z,29.24
2018-08-28T12:54:48.907Z,29.21
2018-08-28T12:57:18.575Z,29.05
2018-08-28T12:59:48.080Z,29.25
2018-08-28T13:02:17.410Z,29.53
2018-08-28T13:04:46.816Z,29.53
2018-08-28T13:07:16.256Z,29.76
2018-08-28T13:09:45.455Z,29.58
2018-08-28T13:12:14.745Z,29.89
2018-08-28T13:14:44.316Z,29.79
2018-08-28T13:17:13.427Z,29.94
2018-08-28T13:19:42.886Z,29.79
2018-08-28T13:22:12.595Z,29.79
2018-08-28T13:24:41.997Z,28.87
2018-08-28T13:27:11.402Z,28.93
2018-08-28T13:29:40.922Z,29.24
2018-08-28T13:32:10.315Z,29.53
2018-08-28T13:34:40.842Z,29.19
2018-08-28T13:37:10.235Z,28.93
2018-08-28T13:39:39.739Z,28.84
2018-08-28T13:42:09.028Z,28.78
2018-08-28T13:44:38.447Z,28.53
2018-08-28T13:47:07.899Z,28.39
2018-08-28T13:49:37.247Z,28.54
2018-08-28T13:52:06.650Z,27.82
2018-08-28T13:54:36.156Z,27.65
2018-08-28T13:57:05.659Z,27.39
2018-08-28T13:59:35.163Z,27.49
2018-08-28T14:02:04.730Z,28.05
2018-08-28T14:04:34.320Z,28.22
2018-08-28T14:07:03.675Z,28.49
2018-08-28T14:09:33.079Z,28.72
2018-08-28T14:12:02.480Z,28.73
2018-08-28T14:14:31.883Z,28.72
2018-08-28T14:17:01.389Z,29.05
2018-08-28T14:19:30.672Z,28.89
2018-08-28T14:22:00.092Z,28.55
2018-08-28T14:24:29.389Z,28.75
2018-08-28T14:26:58.734Z,29.13
2018-08-28T14:29:28.191Z,29.25
2018-08-28T14:31:57.591Z,29.50
2018-08-28T14:34:26.996Z,29.32
2018-08-28T14:36:56.286Z,29.56
2018-08-28T14:39:25.798Z,29.70
2018-08-28T14:41:55.046Z,29.72
2018-08-28T14:44:24.410Z,29.78
2018-08-28T14:46:58.509Z,29.38
2018-08-28T14:49:27.911Z,28.83
2018-08-28T14:51:57.414Z,28.84
2018-08-28T14:54:26.820Z,28.95
2018-08-28T14:56:56.117Z,28.94
2018-08-28T14:59:25.422Z,28.53
2018-08-28T15:01:55.023Z,28.28
2018-08-28T15:04:24.324Z,28.28
2018-08-28T15:06:53.842Z,28.41
2018-08-28T15:09:23.231Z,28.65
2018-08-28T15:11:52.627Z,28.88
2018-08-28T15:14:22.042Z,28.90
2018-08-28T15:16:51.333Z,29.11
2018-08-28T15:19:20.579Z,29.00
2018-08-28T15:21:49.933Z,28.05
2018-08-28T15:24:19.335Z,27.64
2018-08-28T15:26:49.559Z,27.77
2018-08-28T15:29:19.061Z,28.03
2018-08-28T15:31:48.299Z,28.26
2018-08-28T15:34:17.730Z,28.62
2018-08-28T15:36:47.164Z,28.70
2018-08-28T15:39:16.566Z,28.59
2018-08-28T15:41:45.865Z,28.63
2018-08-28T15:44:15.131Z,28.59
2018-08-28T15:46:44.466Z,28.22
2018-08-28T15:49:13.866Z,28.34
2018-08-28T15:51:43.407Z,28.47
2018-08-28T15:54:13.286Z,28.46
2018-08-28T15:56:42.688Z,28.58
2018-08-28T15:59:12.091Z,28.63
2018-08-28T16:01:41.493Z,28.37
2018-08-28T16:04:15.158Z,28.22
2018-08-28T16:06:45.449Z,28.48
2018-08-28T16:09:15.034Z,28.50
2018-08-28T16:11:44.323Z,28.33
2018-08-28T16:14:14.442Z,28.25
2018-08-28T16:16:44.530Z,28.28
2018-08-28T16:19:13.863Z,28.11
2018-08-28T16:21:46.348Z,28.16
2018-08-28T16:24:17.801Z,28.34
2018-08-28T16:26:47.898Z,28.34
2018-08-28T16:29:17.277Z,28.16
2018-08-28T16:31:46.603Z,27.99
2018-08-28T16:34:16.522Z,27.75
2018-08-28T16:36:45.921Z,27.67
2018-08-28T16:39:15.532Z,27.73
2018-08-28T16:41:45.113Z,27.49
2018-08-28T16:44:14.638Z,27.32
2018-08-28T16:46:44.059Z,27.26
2018-08-28T16:49:13.445Z,27.37
2018-08-28T16:51:42.951Z,27.28
2018-08-28T16:54:12.350Z,27.27
2018-08-28T16:56:41.655Z,27.00
2018-08-28T16:59:10.998Z,26.90
2018-08-28T17:01:40.433Z,26.81
2018-08-28T17:04:09.856Z,26.70
2018-08-28T17:06:39.362Z,26.62
2018-08-28T17:09:08.866Z,26.41
2018-08-28T17:11:38.275Z,26.29
2018-08-28T17:14:07.775Z,26.32
2018-08-28T17:16:37.173Z,26.16
2018-08-28T17:19:06.703Z,25.97
2018-08-28T17:21:36.181Z,25.81
2018-08-28T17:24:05.629Z,25.71
2018-08-28T17:26:35.041Z,25.65
2018-08-28T17:29:04.591Z,25.59
2018-08-28T17:31:33.892Z,25.61
2018-08-28T17:34:03.397Z,25.46
2018-08-28T17:36:32.593Z,25.47
2018-08-28T17:39:02.008Z,25.24
2018-08-28T17:41:31.501Z,25.21
2018-08-28T17:44:00.901Z,25.16
2018-08-28T17:46:30.409Z,25.08
2018-08-28T17:48:59.924Z,25.02
2018-08-28T17:51:29.314Z,24.99
2018-08-28T17:53:58.716Z,24.89
2018-08-28T17:56:28.119Z,24.88
2018-08-28T17:58:57.724Z,24.73
2018-08-28T18:01:27.209Z,24.69
2018-08-28T18:03:56.684Z,24.59
2018-08-28T18:06:26.034Z,24.44
2018-08-28T18:08:55.436Z,24.27
2018-08-28T18:11:24.839Z,24.17
2018-08-28T18:13:54.343Z,24.15
2018-08-28T18:16:23.803Z,24.13
2018-08-28T18:18:53.216Z,24.07
2018-08-28T18:21:22.445Z,23.83
2018-08-28T18:23:51.849Z,23.65
2018-08-28T18:26:21.154Z,23.52
2018-08-28T18:28:50.562Z,23.44
2018-08-28T18:31:20.770Z,23.29
2018-08-28T18:33:50.262Z,23.18
2018-08-28T18:36:22.158Z,22.82
2018-08-28T18:38:51.538Z,22.89
2018-08-28T18:41:21.009Z,22.80
2018-08-28T18:43:50.663Z,22.76
2018-08-28T18:46:19.947Z,22.54
2018-08-28T18:48:49.350Z,22.39
2018-08-28T18:51:18.753Z,22.26
2018-08-28T18:53:48.010Z,22.18
2018-08-28T18:56:17.417Z,22.18
2018-08-28T18:58:46.857Z,22.13
2018-08-28T19:01:16.319Z,22.08
2018-08-28T19:03:45.763Z,21.95
2018-08-28T19:06:15.062Z,21.85
2018-08-28T19:08:53.141Z,21.69
2018-08-28T19:11:34.145Z,21.58
2018-08-28T19:14:03.648Z,21.47
2018-08-28T19:16:33.150Z,21.39
2018-08-28T19:19:02.558Z,21.33
2018-08-28T19:21:32.054Z,21.20
2018-08-28T19:24:01.563Z,20.83
2018-08-28T19:26:30.883Z,20.79
2018-08-28T19:29:00.270Z,20.77
2018-08-28T19:31:29.667Z,20.73
2018-08-28T19:33:59.170Z,20.71
2018-08-28T19:36:28.676Z,20.64
2018-08-28T19:38:58.078Z,20.62
2018-08-28T19:41:27.477Z,20.64
2018-08-28T19:43:56.879Z,20.63
2018-08-28T19:46:26.285Z,20.51
2018-08-28T19:48:55.684Z,20.50
2018-08-28T19:51:25.319Z,20.48
2018-08-28T19:53:55.002Z,20.38
2018-08-28T19:56:31.060Z,20.32
2018-08-28T19:59:00.567Z,20.31
2018-08-28T20:01:29.966Z,20.27
2018-08-28T20:03:59.415Z,20.18
2018-08-28T20:06:28.870Z,20.09
2018-08-28T20:08:58.272Z,19.99
2018-08-28T20:11:27.777Z,19.77
2018-08-28T20:13:57.283Z,19.86
2018-08-28T20:16:26.685Z,19.79
2018-08-28T20:18:56.087Z,19.86
2018-08-28T20:21:25.489Z,19.88
2018-08-28T20:23:54.792Z,19.85
2018-08-28T20:26:24.135Z,19.85
2018-08-28T20:28:53.565Z,19.79
2018-08-28T20:31:23.058Z,19.80
2018-08-28T20:33:52.348Z,19.87
2018-08-28T20:36:21.797Z,19.83
2018-08-28T20:38:51.197Z,19.73
2018-08-28T20:41:20.415Z,19.68
2018-08-28T20:43:49.798Z,19.63
2018-08-28T20:46:19.090Z,19.54
2018-08-28T20:48:48.371Z,19.45
2018-08-28T20:51:17.696Z,19.37
2018-08-28T20:53:47.190Z,19.34
2018-08-28T20:56:16.421Z,19.31
2018-08-28T20:58:45.961Z,19.25
2018-08-28T21:01:15.303Z,19.14
2018-08-28T21:03:44.604Z,19.09
2018-08-28T21:06:13.961Z,18.99
2018-08-28T21:08:43.409Z,18.98
2018-08-28T21:11:12.972Z,18.95
2018-08-28T21:13:42.725Z,18.93
2018-08-28T21:16:12.052Z,18.90
2018-08-28T21:18:41.428Z,18.89
2018-08-28T21:21:11.083Z,18.80
2018-08-28T21:23:40.538Z,18.78
2018-08-28T21:26:10.251Z,18.72
2018-08-28T21:28:39.647Z,18.69
2018-08-28T21:31:09.153Z,18.73
2018-08-28T21:33:38.375Z,18.93
2018-08-28T21:36:07.751Z,18.91
2018-08-28T21:38:37.255Z,18.92
2018-08-28T21:41:06.555Z,18.85
2018-08-28T21:43:36.470Z,18.94
2018-08-28T21:46:05.875Z,19.00
2018-08-28T21:48:35.212Z,18.94
2018-08-28T21:51:04.678Z,18.98
2018-08-28T21:53:33.942Z,18.86
2018-08-28T21:56:03.581Z,18.70
2018-08-28T21:58:32.983Z,18.71
2018-08-28T22:01:07.608Z,18.66
2018-08-28T22:03:38.555Z,18.55
2018-08-28T22:06:12.228Z,18.34
2018-08-28T22:08:41.651Z,18.32
2018-08-28T22:11:11.052Z,18.36
2018-08-28T22:13:40.761Z,18.44
2018-08-28T22:16:10.164Z,18.34
2018-08-28T22:18:39.874Z,18.31
2018-08-28T22:21:09.091Z,18.24
2018-08-28T22:23:38.474Z,18.23
2018-08-28T22:26:07.720Z,18.15
2018-08-28T22:28:37.068Z,18.07
2018-08-28T22:31:06.716Z,18.07
2018-08-28T22:33:35.931Z,18.34
2018-08-28T22:36:05.220Z,18.34
2018-08-28T22:38:34.580Z,18.24
2018-08-28T22:41:03.835Z,17.93
2018-08-28T22:43:33.095Z,17.77
2018-08-28T22:46:02.425Z,17.78
2018-08-28T22:48:31.700Z,17.47
2018-08-28T22:51:01.078Z,17.56
2018-08-28T22:53:30.380Z,17.59
2018-08-28T22:55:59.885Z,17.28
2018-08-28T22:58:29.282Z,17.09
2018-08-28T23:00:58.684Z,16.97
2018-08-28T23:03:28.088Z,16.98
2018-08-28T23:05:57.373Z,16.94
2018-08-28T23:08:33.546Z,16.98
2018-08-28T23:11:02.947Z,16.95
2018-08-28T23:13:32.183Z,17.01
2018-08-28T23:16:01.429Z,17.00
2018-08-28T23:18:30.767Z,17.00
2018-08-28T23:21:00.252Z,17.02
2018-08-28T23:23:29.504Z,17.00
2018-08-28T23:25:58.952Z,17.02
2018-08-28T23:28:28.191Z,17.02
2018-08-28T23:30:57.549Z,16.90
2018-08-28T23:33:27.260Z,16.65
2018-08-28T23:35:56.660Z,16.69
2018-08-28T23:38:25.903Z,16.53
2018-08-28T23:40:55.123Z,16.39
2018-08-28T23:43:24.560Z,16.48
2018-08-28T23:45:53.959Z,16.50
2018-08-28T23:48:23.568Z,16.43
2018-08-28T23:50:52.973Z,16.43
2018-08-28T23:53:22.272Z,16.22
2018-08-28T23:55:51.673Z,16.01
2018-08-28T23:58:20.938Z,15.76
